Time;durP1;ratioP1;P1;durP2;ratioP2;P2;SDS_P1;SDS_P2;PMS_P1;PMS_P2;Temp;Humidity;BMP_temperature;BMP_pressure;BME280_temperature;BME280_humidity;BME280_pressure;Samples;Min_cycle;Max_cycle;Signal;HPM_P1;HPM_P2
2023/07/04 00:00:12;;;;;;;;;;;26.50;59.50;;;;;;5145138;27;42981;-81
2023/07/04 00:02:37;;;;;;;;;;;26.50;60.00;;;;;;5138407;27;43278;-80
2023/07/04 00:05:03;;;;;;;;;;;26.40;59.50;;;;;;5145885;27;42894;-79
2023/07/04 00:07:31;;;;;;;;;;;26.50;59.60;;;;;;5148394;27;42786;-79
2023/07/04 00:09:58;;;;;;;;;;;26.40;59.60;;;;;;5149753;27;42880;-80
2023/07/04 00:12:24;;;;;;;;;;;26.50;59.80;;;;;;5148447;27;43026;-82
2023/07/04 00:14:49;;;;;;;;;;;26.40;60.30;;;;;;5149549;27;42880;-81
2023/07/04 00:17:15;;;;;;;;;;;26.40;60.20;;;;;;5142993;27;42842;-80
2023/07/04 00:19:40;;;;;;;;;;;26.40;59.80;;;;;;5144670;27;43018;-80
2023/07/04 00:22:09;;;;;;;;;;;26.40;60.50;;;;;;5149417;27;42885;-79
2023/07/04 00:24:35;;;;;;;;;;;26.50;59.80;;;;;;5149106;27;43040;-81
2023/07/04 00:27:02;;;;;;;;;;;26.50;59.90;;;;;;5148031;27;42934;-79
2023/07/04 00:29:28;;;;;;;;;;;26.50;60.60;;;;;;5147773;27;43522;-79
2023/07/04 00:31:54;;;;;;;;;;;26.40;60.00;;;;;;5148433;27;42993;-79
2023/07/04 00:34:20;;;;;;;;;;;26.50;60.60;;;;;;5148807;27;43719;-81
2023/07/04 00:36:46;;;;;;;;;;;26.50;60.80;;;;;;5147417;27;42851;-80
2023/07/04 00:39:12;;;;;;;;;;;26.50;60.30;;;;;;5131937;27;43536;-79
2023/07/04 00:41:41;;;;;;;;;;;26.50;60.60;;;;;;5125502;27;42980;-80
2023/07/04 00:44:19;;;;;;;;;;;26.50;60.00;;;;;;5131329;27;43520;-80
2023/07/04 00:46:54;;;;;;;;;;;26.50;60.40;;;;;;5148261;27;43000;-79
2023/07/04 00:49:42;;;;;;;;;;;26.40;59.60;;;;;;5146337;27;44506;-80
2023/07/04 00:52:08;;;;;;;;;;;26.40;60.00;;;;;;5144096;27;43423;-79
2023/07/04 00:54:35;;;;;;;;;;;26.40;60.10;;;;;;5127238;27;44455;-81
2023/07/04 00:57:04;;;;;;;;;;;26.40;59.50;;;;;;5126506;27;43077;-79
2023/07/04 00:59:38;;;;;;;;;;;26.40;60.00;;;;;;5148330;27;42985;-81
2023/07/04 01:02:04;;;;;;;;;;;26.30;59.60;;;;;;5128390;27;42909;-79
2023/07/04 01:04:30;;;;;;;;;;;26.30;59.70;;;;;;5147916;27;42966;-80
2023/07/04 01:07:00;;;;;;;;;;;26.40;59.60;;;;;;5146121;27;43014;-79
2023/07/04 01:09:26;;;;;;;;;;;26.30;60.00;;;;;;5147238;27;43871;-78
2023/07/04 01:11:52;;;;;;;;;;;26.30;59.40;;;;;;5146296;27;43038;-79
2023/07/04 01:14:19;;;;;;;;;;;26.30;59.80;;;;;;5148136;27;44308;-79
2023/07/04 01:16:45;;;;;;;;;;;26.30;59.60;;;;;;5147420;27;42940;-82
2023/07/04 01:19:12;;;;;;;;;;;26.30;59.60;;;;;;5148678;27;43333;-79
2023/07/04 01:21:38;;;;;;;;;;;26.30;59.10;;;;;;5147239;27;43030;-79
2023/07/04 01:24:12;;;;;;;;;;;26.30;59.10;;;;;;5146968;27;42975;-79
2023/07/04 01:26:39;;;;;;;;;;;26.30;59.50;;;;;;5148006;27;43094;-79
2023/07/04 01:29:07;;;;;;;;;;;26.30;59.60;;;;;;5148071;27;42860;-81
2023/07/04 01:31:35;;;;;;;;;;;26.30;59.70;;;;;;5146454;27;43119;-80
2023/07/04 01:34:02;;;;;;;;;;;26.30;59.90;;;;;;5143750;27;43886;-80
2023/07/04 01:36:30;;;;;;;;;;;26.30;59.80;;;;;;5147169;27;42948;-80
2023/07/04 01:38:55;;;;;;;;;;;26.30;59.40;;;;;;5144507;27;43744;-80
2023/07/04 01:41:24;;;;;;;;;;;26.30;59.80;;;;;;5146783;27;43014;-79
2023/07/04 01:43:53;;;;;;;;;;;26.30;59.20;;;;;;5143340;27;43575;-80
2023/07/04 01:46:19;;;;;;;;;;;26.30;59.80;;;;;;5147075;27;42963;-80
2023/07/04 01:48:44;;;;;;;;;;;26.30;59.10;;;;;;5146590;27;42997;-80
2023/07/04 01:51:10;;;;;;;;;;;26.30;59.20;;;;;;5147553;27;43005;-81
2023/07/04 01:53:35;;;;;;;;;;;26.30;59.70;;;;;;5144078;27;42991;-80
2023/07/04 01:56:01;;;;;;;;;;;26.30;59.10;;;;;;5146593;27;42902;-82
2023/07/04 01:58:26;;;;;;;;;;;26.30;59.00;;;;;;5144696;27;42958;-81
2023/07/04 02:00:52;;;;;;;;;;;26.30;59.50;;;;;;5146639;27;42968;-80
2023/07/04 02:03:17;;;;;;;;;;;26.30;59.40;;;;;;5143875;27;44285;-80
2023/07/04 02:05:43;;;;;;;;;;;26.30;58.90;;;;;;5143522;27;42949;-80
2023/07/04 02:08:11;;;;;;;;;;;26.30;59.40;;;;;;5142752;27;43620;-81
2023/07/04 02:10:36;;;;;;;;;;;26.30;59.00;;;;;;5140664;27;43103;-79
2023/07/04 02:13:02;;;;;;;;;;;26.30;59.20;;;;;;5139763;27;43523;-79
2023/07/04 02:15:27;;;;;;;;;;;26.30;59.60;;;;;;5134659;27;42902;-82
2023/07/04 02:17:53;;;;;;;;;;;26.30;59.70;;;;;;5145533;27;43431;-81
2023/07/04 02:20:19;;;;;;;;;;;26.30;59.30;;;;;;5146603;27;42948;-80
2023/07/04 02:22:45;;;;;;;;;;;26.30;59.20;;;;;;5126670;27;44716;-79
2023/07/04 02:25:10;;;;;;;;;;;26.30;59.30;;;;;;5146158;27;43018;-80
2023/07/04 02:27:36;;;;;;;;;;;26.30;59.20;;;;;;5146366;27;43605;-80
2023/07/04 02:30:02;;;;;;;;;;;26.30;59.40;;;;;;5146050;27;42985;-81
2023/07/04 02:32:28;;;;;;;;;;;26.30;59.40;;;;;;5146056;27;42886;-80
2023/07/04 02:34:53;;;;;;;;;;;26.30;59.30;;;;;;5147348;27;43128;-82
2023/07/04 02:37:19;;;;;;;;;;;26.20;58.80;;;;;;5145341;27;42986;-81
2023/07/04 02:39:45;;;;;;;;;;;26.20;58.80;;;;;;5128944;27;42976;-81
2023/07/04 02:42:10;;;;;;;;;;;26.20;59.30;;;;;;5139683;27;43189;-81
2023/07/04 02:44:36;;;;;;;;;;;26.20;58.90;;;;;;5128244;27;43032;-81
2023/07/04 02:47:01;;;;;;;;;;;26.20;59.10;;;;;;5129748;27;43128;-81
2023/07/04 02:49:27;;;;;;;;;;;26.20;59.20;;;;;;5109422;27;42976;-81
2023/07/04 02:51:53;;;;;;;;;;;26.20;59.60;;;;;;5129191;27;43679;-81
2023/07/04 02:54:19;;;;;;;;;;;26.20;59.50;;;;;;5126740;27;43120;-80
2023/07/04 02:56:44;;;;;;;;;;;26.20;59.20;;;;;;5130105;27;43570;-79
2023/07/04 02:59:10;;;;;;;;;;;26.20;59.60;;;;;;5120142;27;42963;-81
2023/07/04 03:01:35;;;;;;;;;;;26.20;59.30;;;;;;5129835;27;43042;-82
2023/07/04 03:04:01;;;;;;;;;;;26.20;59.30;;;;;;5135769;27;42924;-81
2023/07/04 03:06:27;;;;;;;;;;;26.20;59.30;;;;;;5134301;27;43622;-82
2023/07/04 03:08:53;;;;;;;;;;;26.20;59.50;;;;;;5145551;27;43106;-81
2023/07/04 03:11:18;;;;;;;;;;;26.20;59.80;;;;;;5144413;27;43543;-79
2023/07/04 03:13:44;;;;;;;;;;;26.20;59.40;;;;;;5145144;27;42982;-79
2023/07/04 03:16:09;;;;;;;;;;;26.10;59.00;;;;;;5146289;27;43039;-80
2023/07/04 03:18:35;;;;;;;;;;;26.10;59.50;;;;;;5146097;27;42973;-80
2023/07/04 03:21:01;;;;;;;;;;;26.10;59.40;;;;;;5145799;27;43562;-79
2023/07/04 03:23:26;;;;;;;;;;;26.10;59.20;;;;;;5145471;27;42897;-82
2023/07/04 03:25:52;;;;;;;;;;;26.10;58.60;;;;;;5126811;27;44268;-80
2023/07/04 03:28:17;;;;;;;;;;;26.10;59.10;;;;;;5145476;27;42990;-79
2023/07/04 03:30:43;;;;;;;;;;;26.00;58.40;;;;;;5145116;27;43524;-80
2023/07/04 03:33:08;;;;;;;;;;;26.00;59.00;;;;;;5146045;27;43126;-80
2023/07/04 03:35:36;;;;;;;;;;;26.10;59.20;;;;;;5146807;27;43577;-79
2023/07/04 03:38:02;;;;;;;;;;;26.10;59.00;;;;;;5144895;27;42997;-80
2023/07/04 03:40:27;;;;;;;;;;;26.10;59.00;;;;;;5144981;27;43494;-81
2023/07/04 03:42:53;;;;;;;;;;;26.00;58.30;;;;;;5144773;27;43024;-80
2023/07/04 03:45:18;;;;;;;;;;;26.00;58.20;;;;;;5144726;27;42950;-81
2023/07/04 03:47:44;;;;;;;;;;;26.00;58.10;;;;;;5145136;27;42966;-79
2023/07/04 03:50:13;;;;;;;;;;;26.00;58.00;;;;;;5145692;27;43571;-80
2023/07/04 03:52:39;;;;;;;;;;;26.00;58.50;;;;;;5137551;27;42932;-80
2023/07/04 03:55:05;;;;;;;;;;;26.00;57.90;;;;;;5124519;27;43862;-80
2023/07/04 03:57:30;;;;;;;;;;;26.00;57.90;;;;;;5145793;27;42956;-80
2023/07/04 03:59:56;;;;;;;;;;;26.00;58.50;;;;;;5146049;27;43571;-80
2023/07/04 04:02:21;;;;;;;;;;;26.00;58.10;;;;;;5138556;27;42987;-80
2023/07/04 04:04:47;;;;;;;;;;;26.00;58.60;;;;;;5138568;27;43232;-79
2023/07/04 04:07:12;;;;;;;;;;;26.10;58.20;;;;;;5145781;27;43293;-81
2023/07/04 04:09:38;;;;;;;;;;;26.00;58.60;;;;;;5132062;27;42885;-82
2023/07/04 04:12:04;;;;;;;;;;;26.00;58.70;;;;;;5137690;27;42937;-80
2023/07/04 04:14:30;;;;;;;;;;;26.10;58.70;;;;;;5137808;27;44918;-80
2023/07/04 04:16:57;;;;;;;;;;;26.10;58.70;;;;;;5131626;27;42943;-80
2023/07/04 04:19:23;;;;;;;;;;;26.00;58.50;;;;;;5132469;27;42973;-80
2023/07/04 04:21:48;;;;;;;;;;;26.00;58.00;;;;;;5106427;27;43227;-80
2023/07/04 04:24:16;;;;;;;;;;;26.00;57.90;;;;;;5136887;27;42866;-80
2023/07/04 04:26:43;;;;;;;;;;;25.90;57.90;;;;;;5131235;27;42962;-80
2023/07/04 04:29:09;;;;;;;;;;;26.00;57.90;;;;;;5145265;27;43456;-82
2023/07/04 04:31:37;;;;;;;;;;;26.00;58.40;;;;;;5145155;27;43036;-81
2023/07/04 04:34:06;;;;;;;;;;;26.00;58.40;;;;;;5144305;27;43656;-81
2023/07/04 04:36:31;;;;;;;;;;;26.00;58.30;;;;;;5134935;27;43220;-81
2023/07/04 04:38:59;;;;;;;;;;;26.00;58.30;;;;;;5137740;27;45422;-80
2023/07/04 04:41:25;;;;;;;;;;;26.00;57.70;;;;;;5129111;27;43078;-80
2023/07/04 04:43:50;;;;;;;;;;;26.00;57.70;;;;;;5143084;27;43305;-79
2023/07/04 04:46:16;;;;;;;;;;;26.00;58.20;;;;;;5136893;27;42978;-82
2023/07/04 04:48:42;;;;;;;;;;;25.90;57.70;;;;;;5134539;27;43969;-79
2023/07/04 04:51:09;;;;;;;;;;;26.00;57.90;;;;;;5128673;27;43645;-79
2023/07/04 04:53:36;;;;;;;;;;;26.00;57.90;;;;;;5136101;27;43012;-79
2023/07/04 04:56:02;;;;;;;;;;;26.00;58.40;;;;;;5141182;27;43056;-81
2023/07/04 04:58:27;;;;;;;;;;;26.00;57.90;;;;;;5137237;27;42923;-80
2023/07/04 05:00:53;;;;;;;;;;;26.00;58.40;;;;;;5132550;27;43302;-80
2023/07/04 05:03:18;;;;;;;;;;;26.10;58.40;;;;;;5135628;27;42944;-81
2023/07/04 05:05:44;;;;;;;;;;;26.10;58.40;;;;;;5132014;27;43098;-80
2023/07/04 05:08:09;;;;;;;;;;;26.10;58.50;;;;;;5135177;27;43467;-79
2023/07/04 05:10:35;;;;;;;;;;;26.00;58.50;;;;;;5117886;27;43321;-80
2023/07/04 05:13:01;;;;;;;;;;;26.00;58.00;;;;;;5128178;27;42880;-80
2023/07/04 05:15:26;;;;;;;;;;;26.00;58.50;;;;;;5147953;27;42871;-79
2023/07/04 05:17:52;;;;;;;;;;;26.00;58.40;;;;;;5134675;27;42942;-80
2023/07/04 05:20:23;;;;;;;;;;;26.00;58.30;;;;;;5141579;27;42977;-79
2023/07/04 05:22:49;;;;;;;;;;;26.00;58.30;;;;;;5127054;27;43196;-79
2023/07/04 05:25:14;;;;;;;;;;;26.00;58.30;;;;;;5120268;27;43212;-79
2023/07/04 05:27:41;;;;;;;;;;;26.00;58.30;;;;;;5127542;27;43409;-80
2023/07/04 05:30:07;;;;;;;;;;;26.00;57.90;;;;;;5126276;27;42774;-80
2023/07/04 05:32:33;;;;;;;;;;;26.00;57.80;;;;;;5141953;27;43218;-80
2023/07/04 05:34:59;;;;;;;;;;;26.00;57.90;;;;;;5140761;27;42959;-79
2023/07/04 05:37:25;;;;;;;;;;;26.00;58.40;;;;;;5141769;27;43051;-81
2023/07/04 05:39:51;;;;;;;;;;;26.00;58.30;;;;;;5142448;27;42879;-80
2023/07/04 05:42:16;;;;;;;;;;;26.00;57.90;;;;;;5142083;27;43335;-81
2023/07/04 05:44:42;;;;;;;;;;;26.10;58.30;;;;;;5142116;27;42998;-80
2023/07/04 05:47:07;;;;;;;;;;;26.10;57.90;;;;;;5121104;27;43691;-80
2023/07/04 05:49:33;;;;;;;;;;;26.10;58.40;;;;;;5142730;27;42990;-81
2023/07/04 05:51:59;;;;;;;;;;;26.50;57.90;;;;;;5132449;27;43913;-80
2023/07/04 05:54:24;;;;;;;;;;;26.30;57.50;;;;;;5130020;27;43011;-81
2023/07/04 05:56:51;;;;;;;;;;;26.40;57.40;;;;;;5137422;27;43001;-80
2023/07/04 05:59:17;;;;;;;;;;;26.40;57.20;;;;;;5145253;27;43022;-80
2023/07/04 06:01:43;;;;;;;;;;;26.40;57.10;;;;;;5125621;27;45305;-79
2023/07/04 06:04:10;;;;;;;;;;;26.50;57.20;;;;;;5142467;27;42856;-79
2023/07/04 06:06:39;;;;;;;;;;;26.50;57.20;;;;;;5144328;27;43110;-80
2023/07/04 06:09:10;;;;;;;;;;;26.50;57.20;;;;;;5138617;27;42998;-82
2023/07/04 06:11:38;;;;;;;;;;;26.50;57.20;;;;;;5113778;27;44747;-80
2023/07/04 06:14:04;;;;;;;;;;;26.50;57.20;;;;;;5128716;27;42950;-79
2023/07/04 06:16:30;;;;;;;;;;;26.50;57.20;;;;;;5129713;27;43363;-79
2023/07/04 06:18:55;;;;;;;;;;;26.50;57.30;;;;;;5142497;27;43022;-88
2023/07/04 06:21:22;;;;;;;;;;;26.50;57.40;;;;;;5141716;27;43061;-82
2023/07/04 06:23:49;;;;;;;;;;;26.60;57.50;;;;;;5136596;27;42872;-80
2023/07/04 06:26:17;;;;;;;;;;;26.50;57.90;;;;;;5138771;27;43594;-80
2023/07/04 06:28:43;;;;;;;;;;;26.50;57.50;;;;;;5119187;27;43110;-81
2023/07/04 06:31:12;;;;;;;;;;;26.60;57.40;;;;;;5142967;27;43442;-81
2023/07/04 06:33:38;;;;;;;;;;;26.60;57.50;;;;;;5137031;27;42928;-81
2023/07/04 06:36:07;;;;;;;;;;;26.60;57.40;;;;;;5131627;27;43407;-81
2023/07/04 06:38:33;;;;;;;;;;;26.60;57.40;;;;;;5132625;27;42916;-81
2023/07/04 06:41:03;;;;;;;;;;;26.50;57.30;;;;;;5129921;27;42984;-81
2023/07/04 06:43:29;;;;;;;;;;;26.60;57.70;;;;;;5128425;27;42890;-81
2023/07/04 06:45:55;;;;;;;;;;;26.60;57.20;;;;;;5127044;27;42965;-81
2023/07/04 06:48:22;;;;;;;;;;;26.60;57.70;;;;;;5144000;27;42984;-81
2023/07/04 06:51:01;;;;;;;;;;;26.60;57.60;;;;;;5134132;27;43572;-80
2023/07/04 06:53:27;;;;;;;;;;;26.60;57.20;;;;;;5138465;27;42854;-80
2023/07/04 06:55:53;;;;;;;;;;;26.60;57.10;;;;;;5134304;27;42923;-80
2023/07/04 06:58:19;;;;;;;;;;;26.60;57.10;;;;;;5144292;27;43062;-79
2023/07/04 07:00:44;;;;;;;;;;;26.60;56.90;;;;;;5135355;27;42908;-79
2023/07/04 07:03:10;;;;;;;;;;;26.60;57.30;;;;;;5134040;27;43048;-79
2023/07/04 07:05:39;;;;;;;;;;;26.60;57.30;;;;;;5125930;27;43023;-79
2023/07/04 07:08:05;;;;;;;;;;;26.60;57.30;;;;;;5142560;27;43099;-79
2023/07/04 07:10:31;;;;;;;;;;;26.60;56.80;;;;;;5141809;27;42921;-79
2023/07/04 07:12:57;;;;;;;;;;;26.60;57.30;;;;;;5123488;27;43776;-78
2023/07/04 07:15:23;;;;;;;;;;;26.60;56.60;;;;;;5109094;27;44466;-84
2023/07/04 07:17:48;;;;;;;;;;;26.60;56.60;;;;;;5138631;27;43000;-87
2023/07/04 07:20:14;;;;;;;;;;;26.60;56.20;;;;;;5141761;27;43592;-82
2023/07/04 07:22:39;;;;;;;;;;;26.60;56.80;;;;;;5134608;27;43018;-83
2023/07/04 07:25:05;;;;;;;;;;;26.60;56.70;;;;;;5133462;27;43030;-78
2023/07/04 07:27:31;;;;;;;;;;;26.60;56.70;;;;;;5145716;27;42947;-83
2023/07/04 07:29:56;;;;;;;;;;;26.60;56.90;;;;;;5127403;27;43584;-78
2023/07/04 07:32:22;;;;;;;;;;;26.60;56.90;;;;;;5135518;27;42964;-77
2023/07/04 07:34:47;;;;;;;;;;;26.50;56.80;;;;;;5130423;27;43423;-83
2023/07/04 07:37:13;;;;;;;;;;;26.50;56.40;;;;;;5127236;27;43015;-78
2023/07/04 07:39:38;;;;;;;;;;;26.60;56.50;;;;;;5140535;27;43634;-82
2023/07/04 07:42:04;;;;;;;;;;;26.60;55.60;;;;;;5140031;27;44182;-76
2023/07/04 07:44:29;;;;;;;;;;;26.60;55.60;;;;;;5138668;27;43026;-76
2023/07/04 07:46:55;;;;;;;;;;;26.60;55.80;;;;;;5144576;27;43022;-76
2023/07/04 07:49:20;;;;;;;;;;;26.60;55.50;;;;;;5139585;27;43056;-86
2023/07/04 07:51:46;;;;;;;;;;;26.70;55.30;;;;;;5114702;27;43203;-90
2023/07/04 07:54:13;;;;;;;;;;;26.70;55.40;;;;;;5132256;27;42991;-80
2023/07/04 07:56:41;;;;;;;;;;;26.60;54.60;;;;;;5142447;27;42987;-79
2023/07/04 07:59:07;;;;;;;;;;;26.60;55.00;;;;;;5134001;27;43312;-78
2023/07/04 08:01:33;;;;;;;;;;;26.60;54.90;;;;;;5135853;27;43907;-82
2023/07/04 08:03:59;;;;;;;;;;;26.50;54.20;;;;;;5133645;27;42988;-81
2023/07/04 08:06:26;;;;;;;;;;;26.50;54.60;;;;;;5139681;27;43061;-80
2023/07/04 08:08:52;;;;;;;;;;;26.60;54.40;;;;;;5132166;27;44086;-79
2023/07/04 08:11:18;;;;;;;;;;;26.60;54.70;;;;;;5144087;27;43012;-76
2023/07/04 08:13:44;;;;;;;;;;;26.60;55.20;;;;;;5127965;27;42995;-81
2023/07/04 08:16:10;;;;;;;;;;;26.60;55.40;;;;;;5138399;27;43053;-75
2023/07/04 08:18:35;;;;;;;;;;;26.60;55.20;;;;;;5126727;27;44111;-75
2023/07/04 08:21:03;;;;;;;;;;;26.70;55.70;;;;;;5138345;27;43011;-80
2023/07/04 08:23:29;;;;;;;;;;;26.70;55.40;;;;;;5131795;27;43086;-88
2023/07/04 08:25:54;;;;;;;;;;;26.60;54.40;;;;;;5132238;27;42960;-80
2023/07/04 08:28:21;;;;;;;;;;;26.60;55.10;;;;;;5140593;27;42885;-75
2023/07/04 08:30:47;;;;;;;;;;;26.60;54.80;;;;;;5135167;27;42922;-76
2023/07/04 08:33:17;;;;;;;;;;;26.60;54.90;;;;;;5145049;27;43584;-89
2023/07/04 08:35:59;;;;;;;;;;;26.60;54.60;;;;;;5141816;27;43658;-76
2023/07/04 08:38:25;;;;;;;;;;;26.70;55.20;;;;;;5144431;27;42917;-87
2023/07/04 08:40:51;;;;;;;;;;;26.70;55.30;;;;;;5145491;27;43179;-83
2023/07/04 08:43:25;;;;;;;;;;;26.70;55.30;;;;;;5139044;27;44346;-77
2023/07/04 08:45:51;;;;;;;;;;;26.70;55.10;;;;;;5141146;27;42926;-77
2023/07/04 08:48:17;;;;;;;;;;;26.60;54.00;;;;;;5144120;27;43037;-76
2023/07/04 08:50:44;;;;;;;;;;;26.60;53.70;;;;;;5134819;27;43118;-76
2023/07/04 08:53:17;;;;;;;;;;;26.60;54.30;;;;;;5139924;27;43222;-77
2023/07/04 08:55:46;;;;;;;;;;;26.70;54.00;;;;;;5132898;27;43208;-81
2023/07/04 08:58:14;;;;;;;;;;;26.70;54.50;;;;;;5145228;27;43665;-77
2023/07/04 09:00:42;;;;;;;;;;;26.70;54.40;;;;;;5136946;27;43082;-76
2023/07/04 09:03:26;;;;;;;;;;;26.70;53.90;;;;;;5138839;27;43807;-76
2023/07/04 09:05:58;;;;;;;;;;;26.70;54.30;;;;;;5144104;27;42959;-76
2023/07/04 09:08:30;;;;;;;;;;;26.70;53.80;;;;;;5140271;27;43092;-77
2023/07/04 09:11:01;;;;;;;;;;;26.70;53.70;;;;;;5136694;27;43005;-77
2023/07/04 09:13:29;;;;;;;;;;;26.70;53.40;;;;;;5142073;27;42977;-76
2023/07/04 09:15:57;;;;;;;;;;;26.60;53.50;;;;;;5138828;27;42925;-77
2023/07/04 09:18:31;;;;;;;;;;;26.70;52.80;;;;;;5143865;27;43477;-78
2023/07/04 09:21:03;;;;;;;;;;;26.70;53.60;;;;;;5137568;27;42977;-77
2023/07/04 09:23:28;;;;;;;;;;;26.70;53.70;;;;;;5143633;27;42889;-77
2023/07/04 09:25:55;;;;;;;;;;;26.70;53.70;;;;;;5144735;27;43052;-77
2023/07/04 09:28:21;;;;;;;;;;;26.70;52.90;;;;;;5135202;27;43547;-78
2023/07/04 09:30:46;;;;;;;;;;;26.70;53.10;;;;;;5144332;27;42973;-81
2023/07/04 09:33:14;;;;;;;;;;;26.70;53.10;;;;;;5130603;27;43606;-78
2023/07/04 09:35:41;;;;;;;;;;;26.70;53.20;;;;;;5140804;27;43063;-81
2023/07/04 09:38:07;;;;;;;;;;;26.70;53.30;;;;;;5131238;27;42958;-78
2023/07/04 09:40:40;;;;;;;;;;;26.70;52.70;;;;;;5130203;27;43003;-78
2023/07/04 09:43:05;;;;;;;;;;;26.70;52.70;;;;;;5146747;27;43878;-77
2023/07/04 09:45:32;;;;;;;;;;;26.70;52.50;;;;;;5141581;27;43013;-77
2023/07/04 09:47:58;;;;;;;;;;;26.70;52.50;;;;;;5119607;27;43941;-77
2023/07/04 09:50:28;;;;;;;;;;;26.70;53.00;;;;;;5131734;27;43020;-76
2023/07/04 09:53:09;;;;;;;;;;;26.70;53.00;;;;;;5144950;27;42861;-76
2023/07/04 09:55:35;;;;;;;;;;;26.70;52.90;;;;;;5140201;27;43157;-77
2023/07/04 09:58:14;;;;;;;;;;;26.70;52.40;;;;;;5138645;27;42956;-81
2023/07/04 10:00:40;;;;;;;;;;;26.80;52.30;;;;;;5144597;27;43046;-77
2023/07/04 10:03:07;;;;;;;;;;;26.80;52.20;;;;;;5135654;27;43630;-80
2023/07/04 10:05:35;;;;;;;;;;;26.70;52.60;;;;;;5136978;27;42959;-75
2023/07/04 10:08:01;;;;;;;;;;;26.80;52.70;;;;;;5128895;27;43371;-79
2023/07/04 10:10:27;;;;;;;;;;;26.80;52.30;;;;;;5145333;27;42945;-77
2023/07/04 10:12:53;;;;;;;;;;;26.80;52.70;;;;;;5140097;27;43759;-79
2023/07/04 10:15:23;;;;;;;;;;;26.70;52.00;;;;;;5140299;27;43028;-79
2023/07/04 10:17:48;;;;;;;;;;;26.70;52.40;;;;;;5145927;27;42892;-78
2023/07/04 10:20:14;;;;;;;;;;;26.80;51.90;;;;;;5142353;27;43084;-78
2023/07/04 10:22:45;;;;;;;;;;;26.80;52.60;;;;;;5138321;27;43009;-81
2023/07/04 10:25:13;;;;;;;;;;;26.70;52.30;;;;;;5132216;27;42991;-77
2023/07/04 10:27:40;;;;;;;;;;;26.80;51.70;;;;;;5130692;27;42903;-77
2023/07/04 10:30:08;;;;;;;;;;;26.80;51.80;;;;;;5134239;27;43216;-83
2023/07/04 10:32:41;;;;;;;;;;;26.80;52.30;;;;;;5139705;27;43599;-77
2023/07/04 10:35:11;;;;;;;;;;;26.70;51.80;;;;;;5128515;27;42945;-76
2023/07/04 10:37:37;;;;;;;;;;;26.80;52.20;;;;;;5137107;27;43023;-81
2023/07/04 10:40:10;;;;;;;;;;;26.80;51.30;;;;;;5137923;27;43058;-77
2023/07/04 10:42:36;;;;;;;;;;;26.80;51.70;;;;;;5142058;27;43619;-80
2023/07/04 10:45:03;;;;;;;;;;;26.80;51.70;;;;;;5122651;27;43065;-77
2023/07/04 10:47:33;;;;;;;;;;;26.70;51.00;;;;;;5137626;27;43092;-80
2023/07/04 10:50:04;;;;;;;;;;;26.70;51.60;;;;;;5140763;27;43082;-76
2023/07/04 10:52:31;;;;;;;;;;;26.70;51.20;;;;;;5138740;27;43243;-77
2023/07/04 10:55:08;;;;;;;;;;;26.70;51.30;;;;;;5145737;27;42923;-78
2023/07/04 10:57:41;;;;;;;;;;;26.70;51.60;;;;;;5144789;27;43034;-78
2023/07/04 11:00:12;;;;;;;;;;;26.70;51.80;;;;;;5135829;27;43260;-78
2023/07/04 11:02:46;;;;;;;;;;;26.80;51.20;;;;;;5136479;27;43944;-77
2023/07/04 11:05:14;;;;;;;;;;;26.80;51.20;;;;;;5132973;27;43194;-76
2023/07/04 11:07:42;;;;;;;;;;;26.80;51.00;;;;;;5117577;27;44189;-76
2023/07/04 11:10:09;;;;;;;;;;;26.80;51.60;;;;;;5142139;27;43210;-77
2023/07/04 11:12:35;;;;;;;;;;;26.70;51.60;;;;;;5138226;27;42951;-79
2023/07/04 11:15:03;;;;;;;;;;;26.70;52.00;;;;;;5111225;27;43091;-78
2023/07/04 11:17:31;;;;;;;;;;;26.70;52.40;;;;;;5145247;27;43752;-76
2023/07/04 11:20:07;;;;;;;;;;;26.80;52.20;;;;;;5134309;27;43012;-76
2023/07/04 11:22:50;;;;;;;;;;;26.80;52.00;;;;;;5144749;27;43679;-79
2023/07/04 11:25:25;;;;;;;;;;;26.90;52.20;;;;;;5136965;27;42978;-78
2023/07/04 11:27:51;;;;;;;;;;;;;;;;;;5140263;27;42942;-76
2023/07/04 11:30:32;;;;;;;;;;;26.90;52.20;;;;;;5131646;27;42894;-77
2023/07/04 11:32:57;;;;;;;;;;;26.90;52.60;;;;;;5129483;27;42938;-77
2023/07/04 11:35:23;;;;;;;;;;;26.80;51.90;;;;;;5136705;27;43026;-78
2023/07/04 11:37:54;;;;;;;;;;;26.80;52.00;;;;;;5143988;27;43309;-79
2023/07/04 11:40:43;;;;;;;;;;;26.90;51.70;;;;;;5143959;27;43079;-78
2023/07/04 11:43:19;;;;;;;;;;;26.90;51.90;;;;;;5130943;27;43564;-76
2023/07/04 11:45:45;;;;;;;;;;;26.90;52.40;;;;;;5139191;27;43634;-76
2023/07/04 11:48:13;;;;;;;;;;;26.90;52.00;;;;;;5140123;27;43392;-78
2023/07/04 11:50:43;;;;;;;;;;;26.90;52.00;;;;;;5138296;27;43090;-77
2023/07/04 11:53:23;;;;;;;;;;;26.90;51.30;;;;;;5135317;27;43086;-77
2023/07/04 11:56:07;;;;;;;;;;;26.90;51.50;;;;;;5129859;27;43093;-85
2023/07/04 11:58:33;;;;;;;;;;;26.90;52.00;;;;;;5124143;27;42962;-82
2023/07/04 12:01:03;;;;;;;;;;;26.90;52.40;;;;;;5140236;27;42930;-76
2023/07/04 12:03:28;;;;;;;;;;;26.90;52.10;;;;;;5150541;27;42957;-79
2023/07/04 12:05:54;;;;;;;;;;;26.90;51.90;;;;;;5129549;27;43091;-76
2023/07/04 12:08:38;;;;;;;;;;;26.90;50.70;;;;;;5151353;27;44078;-77
2023/07/04 12:11:05;;;;;;;;;;;26.90;50.70;;;;;;5135541;27;43317;-77
2023/07/04 12:13:32;;;;;;;;;;;26.90;50.80;;;;;;5140592;27;43926;-75
2023/07/04 12:15:58;;;;;;;;;;;26.90;51.30;;;;;;5149502;27;42972;-77
2023/07/04 12:18:26;;;;;;;;;;;26.90;51.10;;;;;;5143100;27;43036;-78
2023/07/04 12:20:52;;;;;;;;;;;26.90;51.00;;;;;;5143299;27;42975;-75
2023/07/04 12:23:18;;;;;;;;;;;26.90;50.40;;;;;;5137382;27;43458;-77
2023/07/04 12:25:44;;;;;;;;;;;26.90;50.40;;;;;;5138513;27;42983;-78
2023/07/04 12:28:11;;;;;;;;;;;26.90;50.80;;;;;;5149437;27;43256;-79
2023/07/04 12:30:50;;;;;;;;;;;26.90;50.80;;;;;;5141651;27;43099;-78
2023/07/04 12:33:20;;;;;;;;;;;26.90;50.10;;;;;;5146124;27;43090;-78
2023/07/04 12:35:52;;;;;;;;;;;26.90;48.60;;;;;;5125384;27;43331;-82
2023/07/04 12:38:17;;;;;;;;;;;26.90;48.80;;;;;;5147146;27;44075;-78
2023/07/04 12:40:44;;;;;;;;;;;26.90;49.60;;;;;;5140138;27;43033;-77
2023/07/04 12:43:11;;;;;;;;;;;26.90;49.10;;;;;;5141614;27;43644;-79
2023/07/04 12:45:37;;;;;;;;;;;26.90;48.90;;;;;;5142019;27;42919;-84
2023/07/04 12:48:04;;;;;;;;;;;26.90;49.40;;;;;;5147637;27;42882;-79
2023/07/04 12:50:30;;;;;;;;;;;26.90;48.50;;;;;;5123284;27;43225;-75
2023/07/04 12:52:55;;;;;;;;;;;26.90;48.90;;;;;;5146947;27;43726;-76
2023/07/04 12:55:30;;;;;;;;;;;26.90;49.40;;;;;;5144883;27;43081;-76
2023/07/04 12:57:57;;;;;;;;;;;26.90;49.30;;;;;;5144812;27;43562;-77
2023/07/04 13:00:25;;;;;;;;;;;27.00;49.60;;;;;;5145127;27;43751;-83
2023/07/04 13:02:51;;;;;;;;;;;27.00;49.40;;;;;;5146893;27;42993;-77
2023/07/04 13:05:17;;;;;;;;;;;26.90;49.10;;;;;;5145480;27;42961;-81
2023/07/04 13:07:44;;;;;;;;;;;26.90;49.60;;;;;;5142939;27;43405;-77
2023/07/04 13:10:10;;;;;;;;;;;27.00;50.20;;;;;;5145004;27;42963;-76
2023/07/04 13:12:36;;;;;;;;;;;27.00;50.40;;;;;;5137626;27;43102;-77
2023/07/04 13:15:11;;;;;;;;;;;27.00;50.50;;;;;;5136386;27;43626;-77
2023/07/04 13:17:37;;;;;;;;;;;27.10;51.10;;;;;;5137321;27;43721;-77
2023/07/04 13:20:09;;;;;;;;;;;27.10;51.00;;;;;;5144607;27;43230;-75
2023/07/04 13:22:35;;;;;;;;;;;27.10;51.00;;;;;;5138991;27;43549;-78
2023/07/04 13:25:19;;;;;;;;;;;27.10;51.60;;;;;;5114124;27;44252;-76
2023/07/04 13:27:44;;;;;;;;;;;27.00;51.50;;;;;;5130892;27;43034;-77
2023/07/04 13:30:22;;;;;;;;;;;27.00;51.50;;;;;;5133718;27;42917;-77
2023/07/04 13:32:47;;;;;;;;;;;27.00;51.90;;;;;;5134897;27;42977;-80
2023/07/04 13:35:25;;;;;;;;;;;27.10;51.80;;;;;;5118007;27;43037;-79
2023/07/04 13:37:50;;;;;;;;;;;27.10;51.60;;;;;;5127311;27;43152;-81
2023/07/04 13:40:16;;;;;;;;;;;27.00;51.60;;;;;;5139989;27;42952;-76
2023/07/04 13:43:00;;;;;;;;;;;27.10;51.60;;;;;;5134140;27;43081;-81
2023/07/04 13:45:25;;;;;;;;;;;27.00;52.20;;;;;;5139931;27;43037;-75
2023/07/04 13:47:51;;;;;;;;;;;27.10;52.00;;;;;;5136437;27;43598;-81
2023/07/04 13:50:16;;;;;;;;;;;27.20;51.50;;;;;;5140014;27;43140;-77
2023/07/04 13:52:42;;;;;;;;;;;27.10;51.30;;;;;;5135871;27;43619;-79
2023/07/04 13:55:07;;;;;;;;;;;27.10;51.60;;;;;;5137639;27;42904;-83
2023/07/04 13:57:33;;;;;;;;;;;27.10;52.60;;;;;;5134681;27;43281;-76
2023/07/04 13:59:58;;;;;;;;;;;27.00;52.20;;;;;;5134538;27;43005;-75
2023/07/04 14:02:24;;;;;;;;;;;27.00;52.40;;;;;;5132864;27;43602;-82
2023/07/04 14:04:49;;;;;;;;;;;27.10;52.00;;;;;;5133770;27;44021;-79
2023/07/04 14:07:15;;;;;;;;;;;27.10;52.50;;;;;;5132149;27;44079;-83
2023/07/04 14:09:40;;;;;;;;;;;27.10;51.80;;;;;;5138453;27;43455;-77
2023/07/04 14:12:06;;;;;;;;;;;27.10;52.50;;;;;;5141556;27;43558;-82
2023/07/04 14:14:32;;;;;;;;;;;27.00;52.50;;;;;;5142386;27;43033;-78
2023/07/04 14:16:57;;;;;;;;;;;27.10;52.50;;;;;;5140615;27;43839;-77
2023/07/04 14:19:23;;;;;;;;;;;27.00;53.10;;;;;;5138208;27;42947;-78